Time;durP1;ratioP1;P1;durP2;ratioP2;P2;SDS_P1;SDS_P2;PMS_P1;PMS_P2;Temp;Humidity;BMP_temperature;BMP_pressure;BME280_temperature;BME280_humidity;BME280_pressure;Samples;Min_cycle;Max_cycle;Signal;HPM_P1;HPM_P2
2022/10/14 00:01:12;;;;;;;51.80;24.38;;;;;;;13.09;100.00;94682.81;5098037;28;20024;-91
2022/10/14 00:03:39;;;;;;;47.33;24.08;;;;;;;13.08;100.00;94684.66;5098008;28;20429;-90
2022/10/14 00:06:11;;;;;;;47.35;23.27;;;;;;;13.11;100.00;94685.94;5098435;28;20032;-91
2022/10/14 00:08:36;;;;;;;45.83;24.17;;;;;;;12.98;100.00;94690.00;5081261;28;20024;-90
2022/10/14 00:11:06;;;;;;;55.85;24.63;;;;;;;12.89;100.00;94676.66;5097599;28;20437;-90
2022/10/14 00:13:32;;;;;;;52.03;24.65;;;;;;;13.03;100.00;94676.03;5097956;28;20382;-91
2022/10/14 00:15:58;;;;;;;44.55;23.33;;;;;;;13.13;100.00;94679.38;5097918;28;20126;-91
2022/10/14 00:18:23;;;;;;;42.78;22.45;;;;;;;13.20;100.00;94673.00;5097727;28;20077;-90
2022/10/14 00:20:53;;;;;;;40.17;22.23;;;;;;;13.22;100.00;94678.78;5097739;28;20024;-93
2022/10/14 00:23:19;;;;;;;54.47;24.50;;;;;;;13.06;100.00;94683.38;5098740;28;20053;-92
2022/10/14 00:25:44;;;;;;;45.10;23.92;;;;;;;12.95;100.00;94682.66;5098097;28;20027;-91
2022/10/14 00:28:09;;;;;;;55.47;23.35;;;;;;;12.96;100.00;94684.22;5096838;28;20024;-92
2022/10/14 00:30:36;;;;;;;37.83;20.73;;;;;;;13.16;100.00;94678.03;5080001;28;20433;-91
2022/10/14 00:33:01;;;;;;;39.42;20.27;;;;;;;13.15;100.00;94685.13;5094216;28;20370;-92
2022/10/14 00:35:27;;;;;;;48.67;21.88;;;;;;;12.85;100.00;94681.66;5082825;28;20028;-91
2022/10/14 00:37:52;;;;;;;52.78;21.15;;;;;;;12.82;100.00;94679.59;5078718;28;20178;-92
2022/10/14 00:40:18;;;;;;;45.88;22.15;;;;;;;12.89;100.00;94691.63;5093796;28;20019;-92
2022/10/14 00:42:43;;;;;;;44.50;21.60;;;;;;;12.90;100.00;94686.09;5097451;28;20027;-93
2022/10/14 00:45:13;;;;;;;48.38;21.42;;;;;;;12.78;100.00;94686.47;5097412;28;20055;-92
2022/10/14 00:47:39;;;;;;;50.55;21.38;;;;;;;13.00;100.00;94680.00;5097298;28;20024;-91
2022/10/14 00:50:05;;;;;;;43.63;20.58;;;;;;;12.99;100.00;94684.47;5097278;28;20054;-93
2022/10/14 00:52:31;;;;;;;44.03;20.23;;;;;;;12.68;100.00;94678.63;5097116;28;20024;-92
2022/10/14 00:55:00;;;;;;;42.95;18.70;;;;;;;13.04;100.00;94681.00;5097125;28;20122;-91
2022/10/14 00:57:26;;;;;;;37.65;17.60;;;;;;;13.07;100.00;94675.22;5098058;28;20030;-91
2022/10/14 00:59:55;;;;;;;38.83;17.50;;;;;;;13.14;100.00;94673.03;5096623;28;20035;-91
2022/10/14 01:02:21;;;;;;;34.15;15.68;;;;;;;13.18;100.00;94669.84;5113617;28;20337;-91
2022/10/14 01:04:46;;;;;;;30.23;15.05;;;;;;;13.21;100.00;94674.59;5096885;28;20050;-90
2022/10/14 01:07:29;;;;;;;35.65;15.75;;;;;;;13.33;100.00;94667.09;5096980;28;20066;-91
2022/10/14 01:10:02;;;;;;;29.67;14.70;;;;;;;13.22;100.00;94661.13;5097150;28;20036;-90
2022/10/14 01:12:49;;;;;;;30.33;13.30;;;;;;;13.34;100.00;94662.63;5097741;28;20020;-90
2022/10/14 01:15:34;;;;;;;20.17;10.68;;;;;;;13.54;100.00;94659.81;5097753;28;20436;-91
2022/10/14 01:18:18;;;;;;;29.20;13.52;;;;;;;13.52;100.00;94658.53;5096765;28;20403;-91
2022/10/14 01:20:53;;;;;;;19.45;10.52;;;;;;;13.68;100.00;94653.91;5096610;28;20027;-92
2022/10/14 01:23:30;;;;;;;25.67;11.75;;;;;;;13.69;100.00;94640.47;5096635;28;20332;-92
2022/10/14 01:26:11;;;;;;;23.83;11.18;;;;;;;13.63;100.00;94644.22;5097574;28;20069;-91
2022/10/14 01:28:42;;;;;;;19.80;9.82;;;;;;;13.60;100.00;94641.34;5096609;28;20066;-91
2022/10/14 01:31:12;;;;;;;22.33;8.57;;;;;;;13.59;100.00;94634.53;5096239;28;20030;-91
2022/10/14 01:33:39;;;;;;;19.13;8.82;;;;;;;13.32;100.00;94627.91;5079599;28;20070;-91
2022/10/14 01:36:17;;;;;;;25.55;10.50;;;;;;;13.15;100.00;94629.88;5096432;28;20076;-91
2022/10/14 01:38:56;;;;;;;22.77;9.82;;;;;;;13.14;100.00;94625.69;5096411;28;20035;-91
2022/10/14 01:41:30;;;;;;;20.20;9.90;;;;;;;13.26;100.00;94629.81;5096202;28;20028;-91
2022/10/14 01:44:00;;;;;;;20.17;9.23;;;;;;;13.16;100.00;94628.06;5079370;28;20491;-91
2022/10/14 01:46:26;;;;;;;19.20;8.85;;;;;;;13.15;100.00;94623.84;5096082;28;20090;-91
2022/10/14 01:48:55;;;;;;;13.82;7.80;;;;;;;13.22;100.00;94626.16;5079277;28;20031;-91
2022/10/14 01:51:29;;;;;;;20.92;8.55;;;;;;;13.19;100.00;94632.75;5096027;28;20122;-92
2022/10/14 01:54:10;;;;;;;21.17;9.55;;;;;;;13.21;100.00;94627.22;5079289;28;20024;-91
2022/10/14 01:56:36;;;;;;;23.02;10.25;;;;;;;12.87;100.00;94623.56;5112799;28;20016;-91
2022/10/14 01:59:02;;;;;;;30.42;12.73;;;;;;;12.71;100.00;94612.34;5112843;28;20028;-91
2022/10/14 02:01:27;;;;;;;30.23;13.73;;;;;;;12.32;100.00;94613.13;5095758;28;20043;-90
2022/10/14 02:03:53;;;;;;;26.88;11.02;;;;;;;12.37;100.00;94613.13;5112737;28;20444;-91
2022/10/14 02:06:26;;;;;;;24.13;12.13;;;;;;;12.23;100.00;94611.09;5096079;28;20031;-90
2022/10/14 02:08:57;;;;;;;21.80;11.68;;;;;;;12.29;100.00;94617.09;5113111;28;20031;-91
2022/10/14 02:11:23;;;;;;;19.15;10.60;;;;;;;12.52;100.00;94613.03;5095879;28;20031;-91
2022/10/14 02:14:09;;;;;;;26.95;11.10;;;;;;;12.51;100.00;94605.41;5112600;28;20024;-90
2022/10/14 02:17:00;;;;;;;23.85;10.77;;;;;;;12.61;100.00;94604.53;5096817;28;20047;-91
2022/10/14 02:19:28;;;;;;;17.15;9.70;;;;;;;12.58;100.00;94611.16;5096855;28;20020;-92
2022/10/14 02:22:02;;;;;;;14.32;8.75;;;;;;;12.64;100.00;94604.78;5095688;28;20060;-90
2022/10/14 02:24:31;;;;;;;15.73;8.07;;;;;;;12.67;100.00;94604.22;5112550;28;20383;-91
2022/10/14 02:27:00;;;;;;;18.45;8.25;;;;;;;12.72;100.00;94598.94;5095789;28;20109;-91
2022/10/14 02:29:27;;;;;;;15.90;7.57;;;;;;;12.71;100.00;94593.94;5095599;28;20027;-91
2022/10/14 02:31:53;;;;;;;15.95;7.28;;;;;;;12.62;100.00;94585.88;5078790;28;20039;-91
2022/10/14 02:34:21;;;;;;;15.32;6.97;;;;;;;12.84;100.00;94595.19;5112504;28;20348;-91
2022/10/14 02:36:47;;;;;;;15.77;6.88;;;;;;;13.00;100.00;94601.09;5095478;28;20048;-91
2022/10/14 02:39:19;;;;;;;17.88;6.97;;;;;;;13.07;100.00;94593.66;5112951;28;20032;-91
2022/10/14 02:41:44;;;;;;;11.52;6.50;;;;;;;12.97;100.00;94599.00;5095323;28;20130;-92
2022/10/14 02:44:10;;;;;;;12.75;6.50;;;;;;;12.97;100.00;94594.53;5095842;28;20463;-91
2022/10/14 02:46:38;;;;;;;13.65;6.72;;;;;;;12.99;100.00;94591.63;5095365;28;20035;-91
2022/10/14 02:49:03;;;;;;;17.27;7.47;;;;;;;12.82;100.00;94592.81;5095532;28;20028;-91
2022/10/14 02:51:29;;;;;;;15.85;7.28;;;;;;;12.82;100.00;94589.41;5095198;28;20039;-91
2022/10/14 02:53:56;;;;;;;14.13;7.30;;;;;;;12.91;100.00;94593.00;5095318;28;20112;-91
2022/10/14 02:56:21;;;;;;;13.93;6.82;;;;;;;12.95;100.00;94593.25;5078935;28;20440;-91
2022/10/14 02:58:47;;;;;;;11.82;6.35;;;;;;;12.91;100.00;94598.28;5079288;28;20024;-91
2022/10/14 03:01:12;;;;;;;15.82;6.80;;;;;;;12.91;100.00;94600.09;5095073;28;20028;-91
2022/10/14 03:03:38;;;;;;;19.35;8.80;;;;;;;12.75;100.00;94613.38;5096366;28;20049;-91
2022/10/14 03:06:03;;;;;;;19.52;10.07;;;;;;;12.75;100.00;94613.38;5078520;28;20024;-91
2022/10/14 03:08:29;;;;;;;18.30;9.82;;;;;;;12.73;100.00;94608.41;5095071;28;20024;-91
2022/10/14 03:10:55;;;;;;;20.98;9.70;;;;;;;12.72;100.00;94612.09;5096146;28;20523;-91
2022/10/14 03:13:20;;;;;;;24.40;10.10;;;;;;;12.57;100.00;94605.09;5095080;28;20024;-91
2022/10/14 03:15:49;;;;;;;21.52;8.95;;;;;;;12.68;100.00;94610.28;5112033;28;20075;-91
2022/10/14 03:18:15;;;;;;;17.95;8.88;;;;;;;12.72;100.00;94608.66;5078509;28;20020;-92
2022/10/14 03:20:43;;;;;;;20.98;10.73;;;;;;;12.53;100.00;94603.28;5095199;28;20077;-92
2022/10/14 03:23:09;;;;;;;17.25;8.95;;;;;;;12.12;100.00;94594.59;5090118;28;20024;-92
2022/10/14 03:25:34;;;;;;;25.48;9.63;;;;;;;12.26;100.00;94594.78;5089235;28;20118;-92
2022/10/14 03:27:59;;;;;;;19.42;8.48;;;;;;;12.16;100.00;94584.31;5081550;28;20024;-92
2022/10/14 03:30:25;;;;;;;14.95;7.82;;;;;;;12.36;100.00;94588.66;5115519;28;20081;-92
2022/10/14 03:32:50;;;;;;;17.77;8.52;;;;;;;12.27;100.00;94585.84;5098691;28;20024;-92
2022/10/14 03:35:16;;;;;;;19.25;8.00;;;;;;;12.45;100.00;94588.88;5082227;28;20023;-92
2022/10/14 03:37:41;;;;;;;17.63;9.48;;;;;;;12.22;100.00;94585.88;5099015;28;20024;-93
2022/10/14 03:40:08;;;;;;;20.75;8.85;;;;;;;11.95;100.00;94597.53;5098452;28;20024;-92
2022/10/14 03:42:33;;;;;;;24.75;8.98;;;;;;;12.13;100.00;94590.13;5098341;28;20332;-92
2022/10/14 03:44:59;;;;;;;25.42;9.93;;;;;;;12.20;100.00;94587.19;5079190;28;20020;-91
2022/10/14 03:47:24;;;;;;;20.80;10.07;;;;;;;12.07;100.00;94585.97;5098485;28;20061;-92
2022/10/14 03:49:50;;;;;;;18.58;9.40;;;;;;;11.95;100.00;94587.03;5098249;28;20375;-92
2022/10/14 03:52:15;;;;;;;20.23;9.90;;;;;;;11.97;100.00;94586.75;5081425;28;20027;-91
2022/10/14 03:54:40;;;;;;;20.17;10.18;;;;;;;11.88;100.00;94589.16;5081479;28;20325;-92
2022/10/14 03:57:06;;;;;;;25.40;10.38;;;;;;;11.96;100.00;94591.22;5098422;28;20118;-92
2022/10/14 03:59:34;;;;;;;19.63;10.95;;;;;;;12.11;100.00;94582.50;5098258;28;20032;-93
2022/10/14 04:02:00;;;;;;;18.98;9.55;;;;;;;12.14;100.00;94587.25;5098295;28;20032;-93
2022/10/14 04:04:25;;;;;;;20.50;10.63;;;;;;;12.18;100.00;94582.19;5115016;28;20034;-93
2022/10/14 04:06:51;;;;;;;20.58;10.27;;;;;;;12.15;100.00;94578.31;5098196;28;20092;-93
2022/10/14 04:09:16;;;;;;;20.77;10.25;;;;;;;12.14;100.00;94581.19;5098190;28;20122;-91
2022/10/14 04:11:41;;;;;;;25.73;11.00;;;;;;;11.98;100.00;94573.34;5097953;28;20042;-92
2022/10/14 04:14:07;;;;;;;25.42;11.07;;;;;;;11.82;100.00;94580.50;5099330;28;20028;-92
2022/10/14 04:16:32;;;;;;;17.13;9.43;;;;;;;12.01;100.00;94572.84;5097957;28;21067;-91
2022/10/14 04:18:58;;;;;;;19.63;9.90;;;;;;;12.18;100.00;94573.56;5098000;28;20030;-92
2022/10/14 04:21:23;;;;;;;20.20;9.88;;;;;;;11.83;100.00;94576.06;5097832;28;20310;-92
2022/10/14 04:23:49;;;;;;;19.13;10.27;;;;;;;11.62;100.00;94580.59;5097682;28;20455;-93
2022/10/14 04:26:16;;;;;;;20.63;9.48;;;;;;;11.55;100.00;94571.19;5097522;28;20349;-92
2022/10/14 04:28:41;;;;;;;15.10;8.32;;;;;;;11.64;100.00;94581.13;5097497;28;20032;-89
2022/10/14 04:31:07;;;;;;;17.05;9.55;;;;;;;11.60;100.00;94581.66;5097441;28;20421;-89
2022/10/14 04:33:33;;;;;;;21.35;9.75;;;;;;;11.62;100.00;94573.53;5096870;28;20031;-90
2022/10/14 04:36:01;;;;;;;23.23;10.70;;;;;;;11.67;100.00;94575.31;5098547;28;20130;-90
2022/10/14 04:38:27;;;;;;;26.73;11.70;;;;;;;11.50;100.00;94578.28;5080821;28;20035;-90
2022/10/14 04:40:53;;;;;;;26.13;11.00;;;;;;;11.41;100.00;94580.69;5097349;28;20078;-90
2022/10/14 04:43:18;;;;;;;23.95;12.57;;;;;;;11.45;100.00;94581.72;5098367;28;20436;-90
2022/10/14 04:45:43;;;;;;;33.15;13.32;;;;;;;11.71;100.00;94585.03;5097375;28;20034;-90
2022/10/14 04:48:09;;;;;;;27.55;12.40;;;;;;;11.98;100.00;94573.34;5080350;28;20020;-90
2022/10/14 04:50:34;;;;;;;22.88;11.35;;;;;;;12.07;100.00;94575.47;5080274;28;20027;-90
2022/10/14 04:53:00;;;;;;;25.55;12.02;;;;;;;12.05;100.00;94578.34;5097227;28;20024;-90
2022/10/14 04:55:25;;;;;;;25.02;13.02;;;;;;;11.88;100.00;94581.28;5080186;28;20452;-90
2022/10/14 04:57:50;;;;;;;28.48;11.95;;;;;;;11.76;100.00;94580.81;5096829;28;20062;-90
2022/10/14 05:00:16;;;;;;;24.70;11.88;;;;;;;11.84;100.00;94578.44;5115598;28;20047;-90
2022/10/14 05:02:41;;;;;;;20.63;10.98;;;;;;;12.01;100.00;94569.41;5117024;28;20036;-91
2022/10/14 05:05:07;;;;;;;20.50;10.07;;;;;;;12.06;100.00;94571.25;5117353;28;20030;-91
2022/10/14 05:07:33;;;;;;;25.63;11.27;;;;;;;12.05;100.00;94572.28;5100352;28;20339;-91
2022/10/14 05:09:59;;;;;;;28.73;10.90;;;;;;;11.94;100.00;94568.91;5117231;28;20028;-90
2022/10/14 05:12:25;;;;;;;20.70;10.95;;;;;;;11.90;100.00;94571.28;5117204;28;20335;-90
2022/10/14 05:14:50;;;;;;;20.10;10.02;;;;;;;11.93;100.00;94565.53;5100207;28;20110;-90
2022/10/14 05:17:16;;;;;;;23.08;10.02;;;;;;;11.97;100.00;94563.91;5117272;28;20023;-91
2022/10/14 05:19:41;;;;;;;21.20;9.60;;;;;;;11.92;100.00;94566.56;5118358;28;20110;-91
2022/10/14 05:22:07;;;;;;;19.05;10.10;;;;;;;11.94;100.00;94561.84;5116713;28;20031;-90
2022/10/14 05:24:32;;;;;;;21.23;10.27;;;;;;;11.94;100.00;94561.84;5100374;28;20392;-90
2022/10/14 05:26:58;;;;;;;23.95;10.77;;;;;;;11.87;100.00;94562.13;5108796;28;20055;-91
2022/10/14 05:29:23;;;;;;;18.80;9.70;;;;;;;12.05;100.00;94556.53;5096500;28;20526;-91
2022/10/14 05:31:48;;;;;;;24.55;9.77;;;;;;;12.13;100.00;94558.59;5096143;28;20437;-91
2022/10/14 05:34:14;;;;;;;17.98;10.25;;;;;;;12.17;100.00;94564.88;5096300;28;20031;-91
2022/10/14 05:36:39;;;;;;;23.67;9.60;;;;;;;12.22;100.00;94558.81;5096512;28;20034;-91
2022/10/14 05:39:08;;;;;;;26.75;10.57;;;;;;;12.19;100.00;94552.25;5096244;28;20060;-91
2022/10/14 05:41:33;;;;;;;22.38;10.85;;;;;;;12.24;100.00;94557.50;5096459;28;20439;-91
2022/10/14 05:43:59;;;;;;;23.95;9.88;;;;;;;12.34;100.00;94566.34;5079450;28;20028;-91
2022/10/14 05:46:24;;;;;;;18.55;10.23;;;;;;;12.25;100.00;94566.94;5096318;28;20118;-91
2022/10/14 05:48:50;;;;;;;18.88;9.23;;;;;;;12.36;100.00;94564.25;5079300;28;20027;-91
2022/10/14 05:51:19;;;;;;;21.88;8.65;;;;;;;12.50;100.00;94564.41;5079475;28;20032;-91
2022/10/14 05:53:45;;;;;;;23.33;8.30;;;;;;;12.51;100.00;94568.59;5097147;28;20050;-90
2022/10/14 05:56:11;;;;;;;15.65;8.30;;;;;;;12.82;100.00;94568.34;5097386;28;20032;-92
2022/10/14 05:58:37;;;;;;;15.60;8.15;;;;;;;12.72;100.00;94567.41;5096217;28;20077;-91
2022/10/14 06:01:05;;;;;;;20.48;6.82;;;;;;;12.93;100.00;94567.22;5095990;28;20031;-92
2022/10/14 06:03:30;;;;;;;14.48;7.35;;;;;;;13.14;100.00;94570.44;5095972;28;20042;-91
2022/10/14 06:05:56;;;;;;;9.88;5.07;;;;;;;13.27;100.00;94569.03;5097299;28;20024;-91
2022/10/14 06:08:22;;;;;;;17.15;6.57;;;;;;;13.18;100.00;94565.41;5095957;28;20028;-91
2022/10/14 06:10:47;;;;;;;13.57;5.25;;;;;;;13.34;100.00;94563.44;5095545;28;20028;-91
2022/10/14 06:13:13;;;;;;;12.73;4.65;;;;;;;13.31;100.00;94568.47;5096121;28;20035;-91
2022/10/14 06:15:38;;;;;;;10.52;4.35;;;;;;;13.57;100.00;94566.34;5095925;28;20119;-91
2022/10/14 06:18:04;;;;;;;17.30;5.70;;;;;;;13.45;100.00;94561.50;5095797;28;20050;-92
2022/10/14 06:20:30;;;;;;;13.60;5.75;;;;;;;13.58;100.00;94570.56;5096714;28;20027;-91
2022/10/14 06:22:58;;;;;;;12.80;5.15;;;;;;;13.69;100.00;94569.38;5095874;28;20032;-91
2022/10/14 06:25:24;;;;;;;14.68;5.95;;;;;;;13.38;100.00;94568.91;5096745;28;20027;-91
2022/10/14 06:27:49;;;;;;;16.88;6.25;;;;;;;13.61;100.00;94569.22;5095784;28;20024;-91
2022/10/14 06:30:15;;;;;;;14.23;5.88;;;;;;;13.91;100.00;94577.81;5095395;28;20318;-90
2022/10/14 06:32:40;;;;;;;17.75;7.72;;;;;;;13.75;100.00;94574.56;5095570;28;20059;-91
2022/10/14 06:35:06;;;;;;;14.77;7.00;;;;;;;14.16;100.00;94579.31;5095775;28;20058;-91
2022/10/14 06:37:32;;;;;;;18.58;7.03;;;;;;;13.85;100.00;94572.63;5095504;28;20107;-90
2022/10/14 06:39:57;;;;;;;16.55;6.95;;;;;;;13.66;100.00;94580.47;5095383;28;20020;-90
2022/10/14 06:42:22;;;;;;;20.95;7.47;;;;;;;14.06;100.00;94582.09;5095312;28;20455;-90
2022/10/14 06:44:48;;;;;;;16.92;6.78;;;;;;;14.25;100.00;94580.25;5095598;28;20425;-90
2022/10/14 06:47:13;;;;;;;12.95;7.20;;;;;;;14.42;100.00;94589.50;5095385;28;20023;-91
2022/10/14 06:49:39;;;;;;;17.83;7.50;;;;;;;14.56;100.00;94586.94;5095293;28;20034;-91
2022/10/14 06:52:04;;;;;;;17.13;6.95;;;;;;;14.65;100.00;94585.22;5095357;28;20050;-90
2022/10/14 06:54:30;;;;;;;14.55;6.85;;;;;;;14.74;100.00;94590.66;5095623;28;20036;-90
2022/10/14 06:56:55;;;;;;;16.05;7.35;;;;;;;14.88;100.00;94585.44;5096498;28;20024;-91
2022/10/14 06:59:21;;;;;;;18.00;6.95;;;;;;;14.93;100.00;94589.84;5099529;28;20032;-90
2022/10/14 07:01:46;;;;;;;12.10;7.03;;;;;;;15.06;100.00;94590.94;5100486;28;20174;-90
2022/10/14 07:04:11;;;;;;;13.82;7.28;;;;;;;15.17;100.00;94588.91;5099439;28;20074;-91
2022/10/14 07:06:37;;;;;;;12.77;6.07;;;;;;;15.28;100.00;94592.94;5099234;28;20027;-90
2022/10/14 07:09:03;;;;;;;11.43;6.22;;;;;;;15.29;100.00;94601.66;5082292;28;20028;-91
2022/10/14 07:11:29;;;;;;;12.93;6.68;;;;;;;15.42;100.00;94603.50;5099136;28;20039;-90
2022/10/14 07:13:55;;;;;;;15.32;6.32;;;;;;;15.55;100.00;94596.69;5098952;28;20028;-89
2022/10/14 07:16:21;;;;;;;14.45;6.65;;;;;;;15.37;100.00;94600.97;5100710;28;20024;-90
2022/10/14 07:18:47;;;;;;;14.95;6.93;;;;;;;14.97;100.00;94590.81;5099996;28;20131;-91
2022/10/14 07:21:12;;;;;;;12.65;7.10;;;;;;;15.23;100.00;94590.41;5090119;28;20436;-90
2022/10/14 07:23:38;;;;;;;18.20;7.97;;;;;;;15.28;100.00;94600.84;5099016;28;20024;-92
2022/10/14 07:26:04;;;;;;;16.85;6.70;;;;;;;15.44;100.00;94604.00;5115738;28;20028;-90
2022/10/14 07:28:29;;;;;;;15.50;7.05;;;;;;;15.54;100.00;94603.03;5098854;28;20085;-91
2022/10/14 07:31:06;;;;;;;14.52;7.10;;;;;;;15.61;100.00;94600.78;5115754;28;20040;-90
2022/10/14 07:33:32;;;;;;;17.73;6.90;;;;;;;15.27;100.00;94597.41;5097565;28;20028;-90
2022/10/14 07:36:02;;;;;;;15.70;7.70;;;;;;;15.48;100.00;94604.19;5114862;28;20486;-91
2022/10/14 07:38:27;;;;;;;11.90;6.35;;;;;;;15.76;100.00;94602.34;5098634;28;20020;-91
2022/10/14 07:41:01;;;;;;;12.25;6.35;;;;;;;15.72;100.00;94605.88;5098588;28;20020;-91
2022/10/14 07:43:26;;;;;;;;;;;;;;;16.08;100.00;94602.56;5082147;28;20024;-91
2022/10/14 07:45:58;;;;;;;14.50;6.82;;;;;;;15.90;100.00;94607.66;5098401;28;19938;-91
2022/10/14 07:48:24;;;;;;;12.93;6.38;;;;;;;16.11;100.00;94607.25;5098887;28;20031;-90
2022/10/14 07:50:50;;;;;;;12.50;5.88;;;;;;;16.24;100.00;94616.22;5115371;28;20333;-91
2022/10/14 07:53:18;;;;;;;12.35;5.57;;;;;;;16.47;100.00;94608.34;5115198;28;20490;-91
2022/10/14 07:55:50;;;;;;;14.10;6.10;;;;;;;16.74;100.00;94606.69;5115003;28;20390;-91
2022/10/14 07:58:20;;;;;;;13.38;5.97;;;;;;;16.59;100.00;94613.09;5099300;28;20073;-91
2022/10/14 08:00:46;;;;;;;17.05;6.70;;;;;;;16.45;100.00;94610.53;5114987;28;20335;-91
2022/10/14 08:03:11;;;;;;;13.20;7.22;;;;;;;16.38;100.00;94606.41;5099214;28;20120;-90
2022/10/14 08:05:37;;;;;;;12.88;6.22;;;;;;;16.74;100.00;94606.69;5114980;28;20076;-91
2022/10/14 08:08:02;;;;;;;12.32;6.35;;;;;;;16.65;100.00;94609.28;5097028;28;20020;-91
2022/10/14 08:10:28;;;;;;;14.95;7.20;;;;;;;16.92;100.00;94613.66;5114998;28;20028;-91
2022/10/14 08:12:53;;;;;;;15.40;6.93;;;;;;;17.18;100.00;94614.94;5099074;28;20024;-91
2022/10/14 08:15:19;;;;;;;13.75;7.07;;;;;;;17.15;100.00;94616.34;5114871;28;20024;-91
2022/10/14 08:17:44;;;;;;;12.63;6.85;;;;;;;16.91;100.00;94614.75;5097956;28;20031;-90
2022/10/14 08:20:10;;;;;;;17.27;7.43;;;;;;;17.21;100.00;94614.31;5098111;28;20039;-90
2022/10/14 08:22:35;;;;;;;19.50;7.05;;;;;;;17.45;100.00;94610.56;5114895;28;20024;-92
2022/10/14 08:25:01;;;;;;;13.73;7.13;;;;;;;17.91;100.00;94611.97;5098113;28;20276;-92
2022/10/14 08:27:26;;;;;;;15.27;7.38;;;;;;;17.83;100.00;94604.78;5114588;28;20024;-91
2022/10/14 08:29:52;;;;;;;13.73;7.40;;;;;;;17.99;100.00;94604.38;5097911;28;20434;-91
2022/10/14 08:32:18;;;;;;;23.20;7.20;;;;;;;17.93;100.00;94614.31;5114384;28;20340;-91
2022/10/14 08:34:43;;;;;;;10.40;6.53;;;;;;;18.02;100.00;94609.88;5097697;28;20020;-92
2022/10/14 08:37:10;;;;;;;13.75;7.00;;;;;;;18.57;100.00;94610.38;5097605;28;20030;-91
2022/10/14 08:39:36;;;;;;;16.23;7.20;;;;;;;18.11;100.00;94615.19;5097878;28;20400;-91
2022/10/14 08:42:21;;;;;;;22.13;6.97;;;;;;;18.10;100.00;94616.28;5097350;28;20059;-91
2022/10/14 08:44:57;;;;;;;18.55;7.57;;;;;;;18.22;100.00;94615.66;5098481;28;20054;-91
2022/10/14 08:47:25;;;;;;;11.73;7.10;;;;;;;17.95;100.00;94615.59;5114371;28;20032;-91
2022/10/14 08:50:00;;;;;;;12.55;6.47;;;;;;;18.41;100.00;94619.91;5113972;28;20425;-91
2022/10/14 08:52:47;;;;;;;19.45;7.20;;;;;;;18.06;100.00;94625.91;5097194;28;20031;-91
2022/10/14 08:55:24;;;;;;;14.85;6.38;;;;;;;18.10;100.00;94624.22;5097259;28;20383;-91
2022/10/14 08:57:57;;;;;;;14.85;6.65;;;;;;;17.82;100.00;94627.09;5098436;28;20107;-92
2022/10/14 09:00:23;;;;;;;22.05;6.60;;;;;;;17.83;100.00;94618.03;5097099;28;20436;-91
2022/10/14 09:02:50;;;;;;;14.68;7.20;;;;;;;18.13;100.00;94626.25;5114046;28;20081;-91
2022/10/14 09:05:23;;;;;;;13.18;6.70;;;;;;;18.22;100.00;94621.75;5080252;28;20077;-91
2022/10/14 09:07:50;;;;;;;;;;;;;;;18.51;100.00;94625.69;5097473;28;20085;-91
2022/10/14 09:10:32;;;;;;;12.95;6.30;;;;;;;18.65;100.00;94620.22;5079904;28;20305;-91
2022/10/14 09:13:07;;;;;;;14.43;6.93;;;;;;;18.60;100.00;94617.75;5096938;28;20050;-92
2022/10/14 09:15:44;;;;;;;13.57;7.40;;;;;;;18.86;100.00;94624.13;5096870;28;20326;-91
2022/10/14 09:18:20;;;;;;;24.55;7.43;;;;;;;18.81;100.00;94627.72;5080220;28;20035;-92
2022/10/14 09:20:46;;;;;;;17.02;7.50;;;;;;;18.94;100.00;94626.00;5096320;28;20043;-92
2022/10/14 09:23:14;;;;;;;19.50;8.50;;;;;;;18.90;100.00;94619.75;5096705;28;20028;-91
2022/10/14 09:26:02;;;;;;;14.80;8.02;;;;;;;18.94;100.00;94610.09;5113394;28;20020;-91
2022/10/14 09:28:53;;;;;;;11.80;7.28;;;;;;;19.05;100.00;94615.88;5096608;28;20028;-93
2022/10/14 09:31:18;;;;;;;13.70;7.35;;;;;;;19.38;100.00;94617.22;5097377;28;20119;-91
2022/10/14 09:33:44;;;;;;;15.98;7.82;;;;;;;19.60;100.00;94630.25;5096253;28;20173;-93
2022/10/14 09:36:22;;;;;;;20.42;8.10;;;;;;;19.46;95.76;94624.34;5096283;28;20341;-90
2022/10/14 09:38:51;;;;;;;17.20;8.73;;;;;;;19.57;94.96;94630.91;5079579;28;20039;-91
2022/10/14 09:41:18;;;;;;;17.77;8.32;;;;;;;19.49;94.66;94629.03;5079784;28;20027;-90
2022/10/14 09:44:18;;;;;;;20.05;9.20;;;;;;;19.23;100.00;94629.09;5096333;28;20031;-92
2022/10/14 09:46:50;;;;;;;23.25;8.75;;;;;;;19.45;98.91;94628.91;5112690;28;20456;-92
2022/10/14 09:49:19;;;;;;;18.80;9.55;;;;;;;19.37;98.68;94621.72;5112979;28;20081;-92
2022/10/14 09:51:44;;;;;;;18.98;8.65;;;;;;;18.88;100.00;94617.41;5113078;28;20092;-93
2022/10/14 09:54:22;;;;;;;21.48;8.98;;;;;;;19.15;100.00;94617.41;5096228;28;20118;-92
2022/10/14 09:56:48;;;;;;;21.30;8.57;;;;;;;19.56;100.00;94621.38;5113017;28;20024;-92
2022/10/14 09:59:21;;;;;;;15.93;9.15;;;;;;;19.49;92.98;94624.50;5113404;28;20023;-91
2022/10/14 10:01:52;;;;;;;16.45;7.78;;;;;;;19.73;97.86;94623.19;5095944;28;20160;-91
2022/10/14 10:04:30;;;;;;;14.77;8.07;;;;;;;19.97;92.47;94629.03;5095993;28;20024;-91
2022/10/14 10:06:56;;;;;;;15.00;7.72;;;;;;;19.51;93.10;94621.53;5097085;28;20024;-90
2022/10/14 10:09:21;;;;;;;13.02;7.93;;;;;;;20.02;90.62;94624.31;5095953;28;20515;-92
2022/10/14 10:11:47;;;;;;;14.43;7.57;;;;;;;20.10;90.78;94625.38;5112558;28;20161;-92
2022/10/14 10:14:23;;;;;;;15.93;7.07;;;;;;;19.99;96.31;94624.94;5112865;28;20407;-92
2022/10/14 10:16:50;;;;;;;18.17;6.97;;;;;;;19.81;100.00;94618.94;5112759;28;20448;-91
2022/10/14 10:19:36;;;;;;;18.77;8.30;;;;;;;19.82;100.00;94623.16;5096113;28;20019;-91
2022/10/14 10:22:18;;;;;;;15.32;7.72;;;;;;;19.66;100.00;94622.13;5087665;28;20031;-91
2022/10/14 10:25:11;;;;;;;16.42;8.68;;;;;;;20.00;98.07;94615.88;5080921;28;20536;-92
2022/10/14 10:27:48;;;;;;;24.88;8.73;;;;;;;20.11;99.96;94613.63;5068313;28;20033;-93
2022/10/14 10:30:13;;;;;;;19.85;8.18;;;;;;;19.81;95.75;94616.28;5091487;28;20460;-92
2022/10/14 10:32:54;;;;;;;18.10;9.82;;;;;;;19.95;97.18;94608.09;5079065;28;20024;-92
2022/10/14 10:35:25;;;;;;;22.00;10.02;;;;;;;19.98;99.41;94604.00;5080983;28;20028;-92
2022/10/14 10:37:53;;;;;;;18.02;8.60;;;;;;;20.29;100.00;94598.31;5079574;28;20066;-91
2022/10/14 10:40:26;;;;;;;20.88;9.55;;;;;;;20.35;88.69;94601.59;5080523;28;20025;-92
2022/10/14 10:42:55;;;;;;;17.45;9.23;;;;;;;20.45;92.90;94609.19;5079664;28;20489;-91
2022/10/14 10:45:49;;;;;;;24.15;10.00;;;;;;;20.73;90.60;94606.00;5063047;28;20127;-92
2022/10/14 10:48:24;;;;;;;21.80;10.48;;;;;;;20.23;95.50;94602.28;5087222;28;20059;-93
2022/10/14 10:51:15;;;;;;;22.42;10.55;;;;;;;20.67;93.16;94607.31;5099589;28;20445;-91
2022/10/14 10:53:51;;;;;;;23.52;9.73;;;;;;;20.73;90.98;94606.00;5080187;28;20031;-93
2022/10/14 10:56:25;;;;;;;25.02;10.82;;;;;;;20.91;83.92;94605.88;5082975;28;20024;-92
2022/10/14 10:58:57;;;;;;;24.38;9.95;;;;;;;20.89;86.21;94606.22;5099043;28;20024;-93
2022/10/14 11:01:35;;;;;;;18.73;10.23;;;;;;;21.18;83.50;94601.06;5116365;28;20045;-93
2022/10/14 11:04:36;;;;;;;23.95;10.02;;;;;;;21.20;85.17;94598.84;5116732;28;20027;-92
2022/10/14 11:13:39;;;;;;;17.52;9.38;;;;;;;21.55;85.39;94595.81;5099295;28;20479;-92
2022/10/14 11:16:17;;;;;;;22.15;10.55;;;;;;;21.15;79.91;94588.41;5099579;28;20079;-92
2022/10/14 11:18:48;;;;;;;16.73;9.70;;;;;;;20.99;85.56;94578.38;5099322;28;20339;-92
2022/10/14 11:21:32;;;;;;;13.00;8.57;;;;;;;21.38;85.12;94577.38;5082088;28;20130;-91
2022/10/14 11:24:12;;;;;;;20.17;8.65;;;;;;;21.47;80.38;94570.81;5100050;28;20115;-93
2022/10/14 11:26:45;;;;;;;22.92;9.30;;;;;;;21.38;79.36;94574.72;5099043;28;20340;-92
2022/10/14 11:29:26;;;;;;;18.25;8.73;;;;;;;21.21;79.22;94568.44;5098912;28;20024;-91
2022/10/14 11:32:36;;;;;;;22.92;10.02;;;;;;;20.93;75.05;94563.72;5099014;28;20043;-92